sensor_id;sensor_type;location;lat;lon;timestamp;P1;durP1;ratioP1;P2;durP2;ratioP2
46429;SDS011;32131;53.454;-6.180;2024-01-30T00:00:05;5.40;;;1.92;;
46429;SDS011;32131;53.454;-6.180;2024-01-30T00:02:37;5.03;;;1.70;;
46429;SDS011;32131;53.454;-6.180;2024-01-30T00:05:06;12.57;;;2.75;;
46429;SDS011;32131;53.454;-6.180;2024-01-30T00:07:34;10.98;;;2.28;;
46429;SDS011;32131;53.454;-6.180;2024-01-30T00:10:03;14.23;;;2.33;;
46429;SDS011;32131;53.454;-6.180;2024-01-30T00:12:32;15.90;;;3.17;;
46429;SDS011;32131;53.454;-6.180;2024-01-30T00:15:02;19.05;;;2.63;;
46429;SDS011;32131;53.454;-6.180;2024-01-30T00:17:31;14.65;;;2.67;;
46429;SDS011;32131;53.454;-6.180;2024-01-30T00:20:01;15.30;;;2.65;;
46429;SDS011;32131;53.454;-6.180;2024-01-30T00:22:32;15.70;;;4.18;;
46429;SDS011;32131;53.454;-6.180;2024-01-30T00:25:01;8.02;;;2.20;;
46429;SDS011;32131;53.454;-6.180;2024-01-30T00:27:31;13.30;;;2.63;;
46429;SDS011;32131;53.454;-6.180;2024-01-30T00:29:59;8.18;;;2.47;;
46429;SDS011;32131;53.454;-6.180;2024-01-30T00:32:31;10.43;;;2.40;;
46429;SDS011;32131;53.454;-6.180;2024-01-30T00:35:00;8.48;;;2.53;;
46429;SDS011;32131;53.454;-6.180;2024-01-30T00:37:30;9.85;;;2.05;;
46429;SDS011;32131;53.454;-6.180;2024-01-30T00:39:58;17.83;;;3.05;;
46429;SDS011;32131;53.454;-6.180;2024-01-30T00:42:27;14.57;;;2.95;;
46429;SDS011;32131;53.454;-6.180;2024-01-30T00:44:56;6.00;;;2.30;;
46429;SDS011;32131;53.454;-6.180;2024-01-30T00:47:25;10.20;;;2.78;;
46429;SDS011;32131;53.454;-6.180;2024-01-30T00:49:56;11.15;;;2.35;;
46429;SDS011;32131;53.454;-6.180;2024-01-30T00:52:26;24.55;;;4.13;;
46429;SDS011;32131;53.454;-6.180;2024-01-30T00:54:55;10.02;;;2.10;;
46429;SDS011;32131;53.454;-6.180;2024-01-30T00:57:24;16.95;;;3.22;;
46429;SDS011;32131;53.454;-6.180;2024-01-30T00:59:53;14.43;;;2.50;;
46429;SDS011;32131;53.454;-6.180;2024-01-30T01:02:24;7.45;;;1.73;;
46429;SDS011;32131;53.454;-6.180;2024-01-30T01:04:53;13.68;;;2.20;;
46429;SDS011;32131;53.454;-6.180;2024-01-30T01:07:21;12.65;;;2.80;;
46429;SDS011;32131;53.454;-6.180;2024-01-30T01:09:51;6.13;;;1.08;;
46429;SDS011;32131;53.454;-6.180;2024-01-30T01:14:57;7.90;;;1.67;;
46429;SDS011;32131;53.454;-6.180;2024-01-30T01:17:27;9.50;;;2.25;;
46429;SDS011;32131;53.454;-6.180;2024-01-30T01:19:57;11.48;;;2.10;;
46429;SDS011;32131;53.454;-6.180;2024-01-30T01:24:55;8.70;;;2.65;;
46429;SDS011;32131;53.454;-6.180;2024-01-30T01:27:24;15.88;;;2.00;;
46429;SDS011;32131;53.454;-6.180;2024-01-30T01:32:25;10.70;;;2.40;;
46429;SDS011;32131;53.454;-6.180;2024-01-30T01:34:54;6.35;;;1.50;;
46429;SDS011;32131;53.454;-6.180;2024-01-30T01:37:23;3.50;;;1.40;;
46429;SDS011;32131;53.454;-6.180;2024-01-30T01:39:54;8.93;;;2.38;;
46429;SDS011;32131;53.454;-6.180;2024-01-30T01:42:29;8.45;;;2.08;;
46429;SDS011;32131;53.454;-6.180;2024-01-30T01:44:58;8.07;;;2.03;;
46429;SDS011;32131;53.454;-6.180;2024-01-30T01:47:27;3.10;;;1.42;;
46429;SDS011;32131;53.454;-6.180;2024-01-30T01:49:56;15.35;;;2.58;;
46429;SDS011;32131;53.454;-6.180;2024-01-30T01:52:28;10.45;;;1.88;;
46429;SDS011;32131;53.454;-6.180;2024-01-30T01:55:01;6.43;;;1.95;;
46429;SDS011;32131;53.454;-6.180;2024-01-30T01:57:30;9.40;;;2.15;;
46429;SDS011;32131;53.454;-6.180;2024-01-30T01:59:59;11.07;;;1.83;;
46429;SDS011;32131;53.454;-6.180;2024-01-30T02:02:30;8.77;;;1.90;;
46429;SDS011;32131;53.454;-6.180;2024-01-30T02:05:03;14.68;;;2.42;;
46429;SDS011;32131;53.454;-6.180;2024-01-30T02:07:32;10.40;;;2.20;;
46429;SDS011;32131;53.454;-6.180;2024-01-30T02:10:02;6.93;;;1.50;;
46429;SDS011;32131;53.454;-6.180;2024-01-30T02:12:31;11.15;;;1.95;;
46429;SDS011;32131;53.454;-6.180;2024-01-30T02:15:00;7.97;;;1.90;;
46429;SDS011;32131;53.454;-6.180;2024-01-30T02:17:31;12.18;;;1.85;;
46429;SDS011;32131;53.454;-6.180;2024-01-30T02:20:02;13.45;;;2.20;;
46429;SDS011;32131;53.454;-6.180;2024-01-30T02:22:34;6.72;;;1.83;;
46429;SDS011;32131;53.454;-6.180;2024-01-30T02:25:04;10.90;;;3.05;;
46429;SDS011;32131;53.454;-6.180;2024-01-30T02:27:33;9.98;;;1.45;;
46429;SDS011;32131;53.454;-6.180;2024-01-30T02:30:03;9.50;;;1.70;;
46429;SDS011;32131;53.454;-6.180;2024-01-30T02:32:33;6.03;;;1.67;;
46429;SDS011;32131;53.454;-6.180;2024-01-30T02:35:01;12.77;;;1.80;;
46429;SDS011;32131;53.454;-6.180;2024-01-30T02:37:30;11.95;;;1.63;;
46429;SDS011;32131;53.454;-6.180;2024-01-30T02:40:01;11.05;;;2.50;;
46429;SDS011;32131;53.454;-6.180;2024-01-30T02:42:33;11.48;;;2.30;;
46429;SDS011;32131;53.454;-6.180;2024-01-30T02:45:05;8.98;;;2.45;;
46429;SDS011;32131;53.454;-6.180;2024-01-30T02:47:36;8.80;;;1.70;;
46429;SDS011;32131;53.454;-6.180;2024-01-30T02:50:05;10.43;;;1.52;;
46429;SDS011;32131;53.454;-6.180;2024-01-30T02:52:34;6.40;;;2.35;;
46429;SDS011;32131;53.454;-6.180;2024-01-30T02:55:07;6.28;;;1.77;;
46429;SDS011;32131;53.454;-6.180;2024-01-30T02:57:35;10.07;;;1.85;;
46429;SDS011;32131;53.454;-6.180;2024-01-30T03:00:05;5.22;;;1.30;;
46429;SDS011;32131;53.454;-6.180;2024-01-30T03:02:39;5.25;;;1.55;;
46429;SDS011;32131;53.454;-6.180;2024-01-30T03:05:09;12.77;;;2.00;;
46429;SDS011;32131;53.454;-6.180;2024-01-30T03:07:38;7.63;;;1.55;;
46429;SDS011;32131;53.454;-6.180;2024-01-30T03:10:09;4.65;;;1.50;;
46429;SDS011;32131;53.454;-6.180;2024-01-30T03:12:37;3.90;;;1.63;;
46429;SDS011;32131;53.454;-6.180;2024-01-30T03:15:06;10.68;;;1.77;;
46429;SDS011;32131;53.454;-6.180;2024-01-30T03:17:36;8.20;;;1.33;;
46429;SDS011;32131;53.454;-6.180;2024-01-30T03:20:05;14.43;;;1.67;;
46429;SDS011;32131;53.454;-6.180;2024-01-30T03:22:34;7.25;;;1.83;;
46429;SDS011;32131;53.454;-6.180;2024-01-30T03:25:03;13.13;;;2.25;;
46429;SDS011;32131;53.454;-6.180;2024-01-30T03:30:05;8.48;;;1.30;;
46429;SDS011;32131;53.454;-6.180;2024-01-30T03:32:34;9.50;;;1.20;;
46429;SDS011;32131;53.454;-6.180;2024-01-30T03:35:04;8.70;;;1.63;;
46429;SDS011;32131;53.454;-6.180;2024-01-30T03:37:33;13.90;;;1.92;;
46429;SDS011;32131;53.454;-6.180;2024-01-30T03:40:04;13.05;;;1.80;;
46429;SDS011;32131;53.454;-6.180;2024-01-30T03:42:36;6.82;;;1.75;;
46429;SDS011;32131;53.454;-6.180;2024-01-30T03:45:06;8.35;;;2.20;;
46429;SDS011;32131;53.454;-6.180;2024-01-30T03:47:38;9.20;;;1.63;;
46429;SDS011;32131;53.454;-6.180;2024-01-30T03:50:11;12.25;;;1.73;;
46429;SDS011;32131;53.454;-6.180;2024-01-30T03:52:40;6.88;;;1.63;;
46429;SDS011;32131;53.454;-6.180;2024-01-30T03:55:08;12.30;;;1.63;;
46429;SDS011;32131;53.454;-6.180;2024-01-30T03:57:38;9.27;;;2.40;;
46429;SDS011;32131;53.454;-6.180;2024-01-30T04:00:07;6.32;;;1.33;;
46429;SDS011;32131;53.454;-6.180;2024-01-30T04:02:39;7.22;;;1.27;;
46429;SDS011;32131;53.454;-6.180;2024-01-30T04:05:08;6.28;;;0.90;;
46429;SDS011;32131;53.454;-6.180;2024-01-30T04:07:36;5.28;;;1.30;;
46429;SDS011;32131;53.454;-6.180;2024-01-30T04:10:05;9.60;;;2.38;;
46429;SDS011;32131;53.454;-6.180;2024-01-30T04:12:34;6.47;;;0.80;;
46429;SDS011;32131;53.454;-6.180;2024-01-30T04:15:04;16.05;;;2.45;;
46429;SDS011;32131;53.454;-6.180;2024-01-30T04:17:39;2.80;;;1.20;;
46429;SDS011;32131;53.454;-6.180;2024-01-30T04:20:08;5.32;;;1.25;;
46429;SDS011;32131;53.454;-6.180;2024-01-30T04:22:40;7.85;;;1.95;;
46429;SDS011;32131;53.454;-6.180;2024-01-30T04:25:08;4.63;;;1.30;;
46429;SDS011;32131;53.454;-6.180;2024-01-30T04:27:37;7.32;;;1.20;;
46429;SDS011;32131;53.454;-6.180;2024-01-30T04:30:09;5.30;;;1.52;;
46429;SDS011;32131;53.454;-6.180;2024-01-30T04:32:38;10.45;;;1.88;;
46429;SDS011;32131;53.454;-6.180;2024-01-30T04:35:07;5.18;;;1.30;;
46429;SDS011;32131;53.454;-6.180;2024-01-30T04:37:38;6.30;;;1.15;;
46429;SDS011;32131;53.454;-6.180;2024-01-30T04:40:10;6.65;;;1.10;;
46429;SDS011;32131;53.454;-6.180;2024-01-30T04:42:39;7.20;;;1.33;;
46429;SDS011;32131;53.454;-6.180;2024-01-30T04:45:09;3.65;;;1.27;;
46429;SDS011;32131;53.454;-6.180;2024-01-30T04:47:38;7.30;;;1.30;;
46429;SDS011;32131;53.454;-6.180;2024-01-30T04:50:07;5.78;;;1.50;;
46429;SDS011;32131;53.454;-6.180;2024-01-30T04:52:37;6.07;;;0.95;;
46429;SDS011;32131;53.454;-6.180;2024-01-30T04:55:06;12.05;;;1.30;;
46429;SDS011;32131;53.454;-6.180;2024-01-30T04:57:35;8.63;;;1.42;;
46429;SDS011;32131;53.454;-6.180;2024-01-30T05:00:05;7.22;;;1.38;;
46429;SDS011;32131;53.454;-6.180;2024-01-30T05:02:36;6.00;;;0.93;;
46429;SDS011;32131;53.454;-6.180;2024-01-30T05:05:07;4.30;;;0.95;;
46429;SDS011;32131;53.454;-6.180;2024-01-30T05:07:36;9.27;;;1.13;;
46429;SDS011;32131;53.454;-6.180;2024-01-30T05:10:08;1.95;;;0.82;;
46429;SDS011;32131;53.454;-6.180;2024-01-30T05:12:38;6.70;;;1.35;;
46429;SDS011;32131;53.454;-6.180;2024-01-30T05:15:07;7.22;;;1.80;;
46429;SDS011;32131;53.454;-6.180;2024-01-30T05:20:09;3.95;;;1.08;;
46429;SDS011;32131;53.454;-6.180;2024-01-30T05:22:40;3.58;;;0.60;;
46429;SDS011;32131;53.454;-6.180;2024-01-30T05:25:12;10.52;;;0.85;;
46429;SDS011;32131;53.454;-6.180;2024-01-30T05:27:41;3.92;;;0.80;;
46429;SDS011;32131;53.454;-6.180;2024-01-30T05:30:13;12.27;;;1.45;;
46429;SDS011;32131;53.454;-6.180;2024-01-30T05:32:44;3.08;;;1.15;;
46429;SDS011;32131;53.454;-6.180;2024-01-30T05:35:13;4.70;;;1.67;;
46429;SDS011;32131;53.454;-6.180;2024-01-30T05:37:42;2.90;;;0.98;;
46429;SDS011;32131;53.454;-6.180;2024-01-30T05:40:11;5.75;;;1.85;;
46429;SDS011;32131;53.454;-6.180;2024-01-30T05:42:40;3.72;;;0.82;;
46429;SDS011;32131;53.454;-6.180;2024-01-30T05:45:08;3.40;;;1.73;;
46429;SDS011;32131;53.454;-6.180;2024-01-30T05:47:40;9.07;;;1.73;;
46429;SDS011;32131;53.454;-6.180;2024-01-30T05:50:16;5.70;;;1.20;;
46429;SDS011;32131;53.454;-6.180;2024-01-30T05:52:47;8.05;;;1.08;;
46429;SDS011;32131;53.454;-6.180;2024-01-30T05:55:16;5.60;;;1.40;;
46429;SDS011;32131;53.454;-6.180;2024-01-30T05:57:48;10.00;;;1.23;;
46429;SDS011;32131;53.454;-6.180;2024-01-30T06:00:20;7.40;;;0.90;;
46429;SDS011;32131;53.454;-6.180;2024-01-30T06:02:51;11.57;;;1.25;;
46429;SDS011;32131;53.454;-6.180;2024-01-30T06:05:21;7.13;;;1.55;;
46429;SDS011;32131;53.454;-6.180;2024-01-30T06:07:53;13.20;;;1.23;;
46429;SDS011;32131;53.454;-6.180;2024-01-30T06:10:21;2.85;;;0.98;;
46429;SDS011;32131;53.454;-6.180;2024-01-30T06:12:50;2.28;;;0.73;;
46429;SDS011;32131;53.454;-6.180;2024-01-30T06:15:19;8.85;;;2.03;;
46429;SDS011;32131;53.454;-6.180;2024-01-30T06:17:52;12.50;;;1.75;;
46429;SDS011;32131;53.454;-6.180;2024-01-30T06:20:25;10.18;;;1.33;;
46429;SDS011;32131;53.454;-6.180;2024-01-30T06:22:55;12.40;;;2.50;;
46429;SDS011;32131;53.454;-6.180;2024-01-30T06:25:23;7.85;;;2.50;;
46429;SDS011;32131;53.454;-6.180;2024-01-30T06:27:52;5.60;;;0.90;;
46429;SDS011;32131;53.454;-6.180;2024-01-30T06:30:21;6.95;;;1.40;;
46429;SDS011;32131;53.454;-6.180;2024-01-30T06:32:50;2.72;;;1.00;;
46429;SDS011;32131;53.454;-6.180;2024-01-30T06:35:18;8.32;;;1.20;;
46429;SDS011;32131;53.454;-6.180;2024-01-30T06:37:49;3.60;;;1.17;;
46429;SDS011;32131;53.454;-6.180;2024-01-30T06:40:17;6.65;;;1.80;;
46429;SDS011;32131;53.454;-6.180;2024-01-30T06:42:46;3.83;;;1.10;;
46429;SDS011;32131;53.454;-6.180;2024-01-30T06:45:14;6.72;;;1.13;;
46429;SDS011;32131;53.454;-6.180;2024-01-30T06:50:13;7.53;;;1.92;;
46429;SDS011;32131;53.454;-6.180;2024-01-30T06:52:44;5.25;;;1.48;;
46429;SDS011;32131;53.454;-6.180;2024-01-30T06:55:15;11.05;;;3.00;;
46429;SDS011;32131;53.454;-6.180;2024-01-30T06:57:43;9.73;;;1.70;;
46429;SDS011;32131;53.454;-6.180;2024-01-30T07:00:17;4.93;;;1.42;;
46429;SDS011;32131;53.454;-6.180;2024-01-30T07:02:46;8.05;;;2.22;;
46429;SDS011;32131;53.454;-6.180;2024-01-30T07:05:23;11.10;;;2.10;;
46429;SDS011;32131;53.454;-6.180;2024-01-30T07:07:53;16.88;;;2.50;;
46429;SDS011;32131;53.454;-6.180;2024-01-30T07:10:27;3.65;;;0.85;;
46429;SDS011;32131;53.454;-6.180;2024-01-30T07:13:05;6.28;;;1.58;;
46429;SDS011;32131;53.454;-6.180;2024-01-30T07:15:38;7.60;;;2.38;;
46429;SDS011;32131;53.454;-6.180;2024-01-30T07:18:07;6.72;;;1.77;;
46429;SDS011;32131;53.454;-6.180;2024-01-30T07:23:09;6.28;;;1.48;;
46429;SDS011;32131;53.454;-6.180;2024-01-30T07:25:42;9.32;;;2.33;;
46429;SDS011;32131;53.454;-6.180;2024-01-30T07:28:15;6.90;;;1.95;;
46429;SDS011;32131;53.454;-6.180;2024-01-30T07:30:44;7.00;;;1.45;;
46429;SDS011;32131;53.454;-6.180;2024-01-30T07:33:16;11.52;;;1.98;;
46429;SDS011;32131;53.454;-6.180;2024-01-30T07:35:47;7.28;;;1.90;;
46429;SDS011;32131;53.454;-6.180;2024-01-30T07:38:17;3.70;;;1.38;;
46429;SDS011;32131;53.454;-6.180;2024-01-30T07:40:48;12.77;;;1.80;;
46429;SDS011;32131;53.454;-6.180;2024-01-30T07:43:18;8.48;;;2.72;;
46429;SDS011;32131;53.454;-6.180;2024-01-30T07:45:53;5.50;;;1.90;;
46429;SDS011;32131;53.454;-6.180;2024-01-30T07:48:24;10.48;;;1.92;;
46429;SDS011;32131;53.454;-6.180;2024-01-30T07:50:53;9.60;;;2.15;;
46429;SDS011;32131;53.454;-6.180;2024-01-30T07:53:22;11.40;;;2.20;;
46429;SDS011;32131;53.454;-6.180;2024-01-30T07:55:54;6.13;;;1.95;;
46429;SDS011;32131;53.454;-6.180;2024-01-30T07:58:26;6.25;;;2.05;;
46429;SDS011;32131;53.454;-6.180;2024-01-30T08:00:59;10.00;;;1.50;;
46429;SDS011;32131;53.454;-6.180;2024-01-30T08:03:32;8.35;;;2.22;;
46429;SDS011;32131;53.454;-6.180;2024-01-30T08:06:01;8.88;;;1.98;;
46429;SDS011;32131;53.454;-6.180;2024-01-30T08:08:37;6.50;;;1.92;;
46429;SDS011;32131;53.454;-6.180;2024-01-30T08:11:13;5.97;;;2.03;;
46429;SDS011;32131;53.454;-6.180;2024-01-30T08:13:41;7.80;;;1.95;;
46429;SDS011;32131;53.454;-6.180;2024-01-30T08:16:10;9.15;;;2.00;;
46429;SDS011;32131;53.454;-6.180;2024-01-30T08:18:40;5.93;;;1.63;;
46429;SDS011;32131;53.454;-6.180;2024-01-30T08:21:09;8.23;;;2.75;;
46429;SDS011;32131;53.454;-6.180;2024-01-30T08:23:39;4.10;;;1.75;;
46429;SDS011;32131;53.454;-6.180;2024-01-30T08:26:11;9.02;;;1.33;;
46429;SDS011;32131;53.454;-6.180;2024-01-30T08:28:40;7.88;;;1.48;;
46429;SDS011;32131;53.454;-6.180;2024-01-30T08:31:10;8.20;;;1.75;;
46429;SDS011;32131;53.454;-6.180;2024-01-30T08:33:42;9.27;;;3.50;;
46429;SDS011;32131;53.454;-6.180;2024-01-30T08:36:15;5.72;;;1.83;;
46429;SDS011;32131;53.454;-6.180;2024-01-30T08:38:43;6.07;;;1.80;;
46429;SDS011;32131;53.454;-6.180;2024-01-30T08:41:14;6.95;;;1.90;;
46429;SDS011;32131;53.454;-6.180;2024-01-30T08:43:43;5.63;;;2.08;;
46429;SDS011;32131;53.454;-6.180;2024-01-30T08:46:17;6.88;;;1.67;;
46429;SDS011;32131;53.454;-6.180;2024-01-30T08:48:45;8.48;;;2.08;;
46429;SDS011;32131;53.454;-6.180;2024-01-30T08:51:14;11.05;;;2.42;;
46429;SDS011;32131;53.454;-6.180;2024-01-30T08:53:43;7.78;;;1.67;;
46429;SDS011;32131;53.454;-6.180;2024-01-30T08:56:16;6.28;;;2.05;;
46429;SDS011;32131;53.454;-6.180;2024-01-30T08:58:45;12.55;;;2.25;;
46429;SDS011;32131;53.454;-6.180;2024-01-30T09:01:18;5.65;;;1.95;;
46429;SDS011;32131;53.454;-6.180;2024-01-30T09:03:51;5.57;;;2.47;;
46429;SDS011;32131;53.454;-6.180;2024-01-30T09:06:19;4.20;;;1.23;;
46429;SDS011;32131;53.454;-6.180;2024-01-30T09:08:48;8.70;;;1.95;;
46429;SDS011;32131;53.454;-6.180;2024-01-30T09:11:22;4.07;;;1.48;;
46429;SDS011;32131;53.454;-6.180;2024-01-30T09:13:52;14.25;;;2.17;;
46429;SDS011;32131;53.454;-6.180;2024-01-30T09:16:20;6.82;;;2.00;;
46429;SDS011;32131;53.454;-6.180;2024-01-30T09:18:50;3.35;;;1.50;;
46429;SDS011;32131;53.454;-6.180;2024-01-30T09:21:19;5.63;;;2.20;;
46429;SDS011;32131;53.454;-6.180;2024-01-30T09:23:49;4.53;;;1.75;;
46429;SDS011;32131;53.454;-6.180;2024-01-30T09:26:19;7.60;;;2.35;;
46429;SDS011;32131;53.454;-6.180;2024-01-30T09:28:52;9.80;;;2.55;;
46429;SDS011;32131;53.454;-6.180;2024-01-30T09:31:22;9.70;;;2.50;;
46429;SDS011;32131;53.454;-6.180;2024-01-30T09:33:53;9.68;;;2.25;;
46429;SDS011;32131;53.454;-6.180;2024-01-30T09:36:22;5.10;;;2.03;;
46429;SDS011;32131;53.454;-6.180;2024-01-30T09:38:51;9.13;;;2.05;;
46429;SDS011;32131;53.454;-6.180;2024-01-30T09:41:21;6.82;;;1.90;;
46429;SDS011;32131;53.454;-6.180;2024-01-30T09:43:52;6.90;;;1.75;;
46429;SDS011;32131;53.454;-6.180;2024-01-30T09:46:29;7.28;;;2.00;;
46429;SDS011;32131;53.454;-6.180;2024-01-30T09:49:04;6.22;;;2.10;;
46429;SDS011;32131;53.454;-6.180;2024-01-30T09:51:36;6.50;;;2.17;;
46429;SDS011;32131;53.454;-6.180;2024-01-30T09:54:06;6.38;;;1.88;;
46429;SDS011;32131;53.454;-6.180;2024-01-30T09:56:37;6.13;;;2.05;;
46429;SDS011;32131;53.454;-6.180;2024-01-30T09:59:06;9.45;;;2.20;;
46429;SDS011;32131;53.454;-6.180;2024-01-30T10:01:39;6.07;;;2.33;;
46429;SDS011;32131;53.454;-6.180;2024-01-30T10:04:15;8.85;;;2.45;;
46429;SDS011;32131;53.454;-6.180;2024-01-30T10:09:17;4.95;;;1.77;;
46429;SDS011;32131;53.454;-6.180;2024-01-30T10:11:50;11.15;;;2.05;;
46429;SDS011;32131;53.454;-6.180;2024-01-30T10:14:20;5.15;;;1.88;;
46429;SDS011;32131;53.454;-6.180;2024-01-30T10:16:48;12.77;;;2.00;;
46429;SDS011;32131;53.454;-6.180;2024-01-30T10:19:19;5.63;;;1.88;;
46429;SDS011;32131;53.454;-6.180;2024-01-30T10:21:50;8.63;;;2.53;;
46429;SDS011;32131;53.454;-6.180;2024-01-30T10:24:23;11.75;;;2.38;;
46429;SDS011;32131;53.454;-6.180;2024-01-30T10:26:55;10.63;;;2.50;;
46429;SDS011;32131;53.454;-6.180;2024-01-30T10:29:24;7.85;;;1.95;;
46429;SDS011;32131;53.454;-6.180;2024-01-30T10:31:59;9.98;;;2.10;;
46429;SDS011;32131;53.454;-6.180;2024-01-30T10:34:34;17.38;;;2.60;;
46429;SDS011;32131;53.454;-6.180;2024-01-30T10:37:06;8.00;;;2.03;;
46429;SDS011;32131;53.454;-6.180;2024-01-30T10:39:39;6.85;;;2.05;;
46429;SDS011;32131;53.454;-6.180;2024-01-30T10:42:14;7.28;;;2.80;;
46429;SDS011;32131;53.454;-6.180;2024-01-30T10:44:44;10.68;;;2.20;;
46429;SDS011;32131;53.454;-6.180;2024-01-30T10:47:21;4.93;;;1.67;;
46429;SDS011;32131;53.454;-6.180;2024-01-30T10:49:54;7.57;;;2.63;;
46429;SDS011;32131;53.454;-6.180;2024-01-30T10:52:24;7.63;;;2.10;;
46429;SDS011;32131;53.454;-6.180;2024-01-30T10:54:55;5.20;;;2.28;;
46429;SDS011;32131;53.454;-6.180;2024-01-30T10:57:25;6.68;;;2.22;;
46429;SDS011;32131;53.454;-6.180;2024-01-30T10:59:56;7.10;;;2.22;;
46429;SDS011;32131;53.454;-6.180;2024-01-30T11:02:26;8.10;;;2.13;;
46429;SDS011;32131;53.454;-6.180;2024-01-30T11:04:56;10.73;;;2.08;;
46429;SDS011;32131;53.454;-6.180;2024-01-30T11:07:30;7.88;;;2.05;;
46429;SDS011;32131;53.454;-6.180;2024-01-30T11:10:00;13.48;;;2.30;;
46429;SDS011;32131;53.454;-6.180;2024-01-30T11:12:39;11.85;;;2.35;;
46429;SDS011;32131;53.454;-6.180;2024-01-30T11:15:15;8.43;;;2.30;;
46429;SDS011;32131;53.454;-6.180;2024-01-30T11:17:49;10.32;;;2.85;;
46429;SDS011;32131;53.454;-6.180;2024-01-30T11:20:20;5.35;;;2.15;;
46429;SDS011;32131;53.454;-6.180;2024-01-30T11:22:53;11.25;;;1.88;;
46429;SDS011;32131;53.454;-6.180;2024-01-30T11:25:24;4.05;;;1.90;;
46429;SDS011;32131;53.454;-6.180;2024-01-30T11:27:57;5.78;;;2.10;;
46429;SDS011;32131;53.454;-6.180;2024-01-30T11:30:27;5.90;;;1.58;;
46429;SDS011;32131;53.454;-6.180;2024-01-30T11:32:58;9.50;;;2.25;;
46429;SDS011;32131;53.454;-6.180;2024-01-30T11:35:32;10.00;;;2.60;;
46429;SDS011;32131;53.454;-6.180;2024-01-30T11:38:07;3.92;;;1.60;;
46429;SDS011;32131;53.454;-6.180;2024-01-30T11:40:37;8.07;;;2.42;;
46429;SDS011;32131;53.454;-6.180;2024-01-30T11:43:11;7.25;;;1.95;;
46429;SDS011;32131;53.454;-6.180;2024-01-30T11:45:40;7.03;;;1.92;;
46429;SDS011;32131;53.454;-6.180;2024-01-30T11:48:11;8.88;;;2.03;;
46429;SDS011;32131;53.454;-6.180;2024-01-30T11:50:42;10.60;;;2.35;;
46429;SDS011;32131;53.454;-6.180;2024-01-30T11:53:22;7.57;;;2.55;;
46429;SDS011;32131;53.454;-6.180;2024-01-30T11:55:51;7.05;;;1.77;;
46429;SDS011;32131;53.454;-6.180;2024-01-30T11:58:21;5.13;;;1.92;;
46429;SDS011;32131;53.454;-6.180;2024-01-30T12:00:53;4.53;;;1.52;;
46429;SDS011;32131;53.454;-6.180;2024-01-30T12:03:23;11.13;;;1.92;;
46429;SDS011;32131;53.454;-6.180;2024-01-30T12:05:55;10.30;;;1.95;;
46429;SDS011;32131;53.454;-6.180;2024-01-30T12:08:28;7.25;;;2.15;;
46429;SDS011;32131;53.454;-6.180;2024-01-30T12:10:57;7.78;;;2.10;;
46429;SDS011;32131;53.454;-6.180;2024-01-30T12:13:32;8.40;;;1.40;;
46429;SDS011;32131;53.454;-6.180;2024-01-30T12:16:05;11.85;;;2.45;;
46429;SDS011;32131;53.454;-6.180;2024-01-30T12:18:35;13.18;;;2.00;;
46429;SDS011;32131;53.454;-6.180;2024-01-30T12:21:06;4.93;;;1.50;;
46429;SDS011;32131;53.454;-6.180;2024-01-30T12:23:35;7.00;;;1.67;;
46429;SDS011;32131;53.454;-6.180;2024-01-30T12:26:05;3.90;;;1.42;;
46429;SDS011;32131;53.454;-6.180;2024-01-30T12:28:35;6.35;;;1.60;;
46429;SDS011;32131;53.454;-6.180;2024-01-30T12:31:05;12.13;;;1.38;;
46429;SDS011;32131;53.454;-6.180;2024-01-30T12:33:35;6.68;;;1.40;;
46429;SDS011;32131;53.454;-6.180;2024-01-30T12:36:06;4.85;;;1.35;;
46429;SDS011;32131;53.454;-6.180;2024-01-30T12:38:34;4.13;;;1.40;;
46429;SDS011;32131;53.454;-6.180;2024-01-30T12:41:03;7.50;;;1.20;;
46429;SDS011;32131;53.454;-6.180;2024-01-30T12:43:31;6.82;;;1.30;;
46429;SDS011;32131;53.454;-6.180;2024-01-30T12:46:06;3.70;;;1.40;;
46429;SDS011;32131;53.454;-6.180;2024-01-30T12:48:35;5.20;;;1.65;;
46429;SDS011;32131;53.454;-6.180;2024-01-30T12:51:04;6.95;;;1.30;;
46429;SDS011;32131;53.454;-6.180;2024-01-30T12:53:34;8.68;;;1.50;;
46429;SDS011;32131;53.454;-6.180;2024-01-30T12:56:03;6.63;;;1.13;;
46429;SDS011;32131;53.454;-6.180;2024-01-30T12:58:48;5.15;;;0.82;;
46429;SDS011;32131;53.454;-6.180;2024-01-30T13:01:21;6.97;;;1.40;;
46429;SDS011;32131;53.454;-6.180;2024-01-30T13:06:18;11.23;;;1.40;;
46429;SDS011;32131;53.454;-6.180;2024-01-30T13:08:49;9.20;;;0.85;;
46429;SDS011;32131;53.454;-6.180;2024-01-30T13:11:18;5.13;;;0.85;;
46429;SDS011;32131;53.454;-6.180;2024-01-30T13:13:51;6.50;;;0.90;;
46429;SDS011;32131;53.454;-6.180;2024-01-30T13:16:21;2.25;;;0.90;;
46429;SDS011;32131;53.454;-6.180;2024-01-30T13:19:04;4.60;;;0.70;;
46429;SDS011;32131;53.454;-6.180;2024-01-30T13:21:41;4.18;;;1.02;;
46429;SDS011;32131;53.454;-6.180;2024-01-30T13:24:13;2.97;;;1.17;;
46429;SDS011;32131;53.454;-6.180;2024-01-30T13:26:42;1.67;;;0.80;;
46429;SDS011;32131;53.454;-6.180;2024-01-30T13:29:12;4.22;;;0.70;;
46429;SDS011;32131;53.454;-6.180;2024-01-30T13:31:46;10.00;;;1.02;;
46429;SDS011;32131;53.454;-6.180;2024-01-30T13:34:19;3.85;;;0.68;;
46429;SDS011;32131;53.454;-6.180;2024-01-30T13:36:48;9.20;;;0.90;;
46429;SDS011;32131;53.454;-6.180;2024-01-30T13:39:16;3.13;;;0.77;;
46429;SDS011;32131;53.454;-6.180;2024-01-30T13:41:48;5.82;;;0.90;;
46429;SDS011;32131;53.454;-6.180;2024-01-30T13:44:20;3.53;;;0.63;;
46429;SDS011;32131;53.454;-6.180;2024-01-30T13:46:50;2.53;;;0.82;;
46429;SDS011;32131;53.454;-6.180;2024-01-30T13:49:23;3.70;;;1.25;;
46429;SDS011;32131;53.454;-6.180;2024-01-30T13:51:52;2.60;;;0.85;;
46429;SDS011;32131;53.454;-6.180;2024-01-30T13:54:23;2.83;;;0.95;;
46429;SDS011;32131;53.454;-6.180;2024-01-30T13:56:52;5.32;;;1.48;;
46429;SDS011;32131;53.454;-6.180;2024-01-30T13:59:21;6.40;;;0.93;;
46429;SDS011;32131;53.454;-6.180;2024-01-30T14:01:56;2.78;;;0.95;;
46429;SDS011;32131;53.454;-6.180;2024-01-30T14:04:25;4.60;;;0.90;;
46429;SDS011;32131;53.454;-6.180;2024-01-30T14:06:54;5.50;;;0.73;;
46429;SDS011;32131;53.454;-6.180;2024-01-30T14:09:30;2.97;;;1.17;;
46429;SDS011;32131;53.454;-6.180;2024-01-30T14:11:59;5.30;;;0.80;;
46429;SDS011;32131;53.454;-6.180;2024-01-30T14:14:32;4.47;;;0.60;;
46429;SDS011;32131;53.454;-6.180;2024-01-30T14:19:45;1.55;;;0.70;;
46429;SDS011;32131;53.454;-6.180;2024-01-30T14:22:14;3.70;;;0.98;;
46429;SDS011;32131;53.454;-6.180;2024-01-30T14:24:42;5.43;;;0.60;;
46429;SDS011;32131;53.454;-6.180;2024-01-30T14:27:16;2.67;;;0.60;;
46429;SDS011;32131;53.454;-6.180;2024-01-30T14:29:45;4.38;;;0.93;;
46429;SDS011;32131;53.454;-6.180;2024-01-30T14:32:14;4.00;;;0.80;;
46429;SDS011;32131;53.454;-6.180;2024-01-30T14:34:44;2.15;;;1.00;;
46429;SDS011;32131;53.454;-6.180;2024-01-30T14:37:12;0.98;;;0.30;;
46429;SDS011;32131;53.454;-6.180;2024-01-30T14:39:40;4.47;;;0.50;;
46429;SDS011;32131;53.454;-6.180;2024-01-30T14:42:09;2.10;;;0.73;;
46429;SDS011;32131;53.454;-6.180;2024-01-30T14:47:09;2.15;;;0.45;;
46429;SDS011;32131;53.454;-6.180;2024-01-30T14:49:40;2.35;;;0.75;;
46429;SDS011;32131;53.454;-6.180;2024-01-30T14:52:10;5.82;;;0.80;;
46429;SDS011;32131;53.454;-6.180;2024-01-30T14:54:38;0.98;;;0.57;;
46429;SDS011;32131;53.454;-6.180;2024-01-30T14:59:41;3.42;;;0.70;;
46429;SDS011;32131;53.454;-6.180;2024-01-30T15:02:10;5.55;;;0.85;;
46429;SDS011;32131;53.454;-6.180;2024-01-30T15:04:38;6.28;;;1.20;;
46429;SDS011;32131;53.454;-6.180;2024-01-30T15:07:07;2.63;;;0.80;;
46429;SDS011;32131;53.454;-6.180;2024-01-30T15:09:39;2.47;;;0.45;;
46429;SDS011;32131;53.454;-6.180;2024-01-30T15:12:08;3.20;;;0.80;;
46429;SDS011;32131;53.454;-6.180;2024-01-30T15:14:37;2.73;;;0.67;;
46429;SDS011;32131;53.454;-6.180;2024-01-30T15:17:07;1.27;;;0.45;;
46429;SDS011;32131;53.454;-6.180;2024-01-30T15:19:36;3.42;;;1.00;;